Latest Weather Observations for Roma

IDQ60801

Issued at 4:32 am EST Friday 30 September 2016 (issued every 30 minutes, with the page automatically refreshed every 10 minutes)

About weather observations | Map of weather stations | Latest weather observations for QLD | Other Formats
Station Details ID: 043091 Name: ROMA AIRPORT Lat: -26.55 Lon: 148.77 Height: 307.38 m
Data from the previous 72 hours. | See also: Recent months at Roma
Date/Time
EST
Temp
°C
App
Temp
°C
Dew
Point
°C
Rel
Hum
%
Delta-T
°C
Wind Press
QNH
hPa
Press
MSL
hPa
Rain since
9am
mm
Dir  Spd
km/h
Gust
km/h
Spd
kts
Gust
kts
30/04:30am 5.5 1.8 2.5 81 1.2 NW 11 13 6 7 1009.2 1008.4 0.2
30/04:00am 5.8 2.2 2.8 81 1.3 NNW 11 13 6 7 1009.0 1008.2 0.2
30/03:30am 5.2 1.1 2.4 82 1.2 NNW 13 13 7 7 1009.0 1008.2 0.2
30/03:00am 6.5 3.3 3.1 79 1.5 NNW 9 9 5 5 1009.0 1008.2 0.2
30/02:30am 6.8 3.6 3.2 78 1.5 NNW 9 11 5 6 1009.1 1008.3 0.2
30/02:00am 6.8 2.8 3.1 77 1.6 NW 13 15 7 8 1009.2 1008.4 0.2
30/01:30am 7.9 4.2 4.7 80 1.4 NW 13 13 7 7 1009.3 1008.5 0.2
30/01:00am 8.7 5.5 5.1 78 1.6 NW 11 11 6 6 1009.5 1008.7 0.2
30/12:30am 10.3 7.5 5.3 71 2.3 NW 9 11 5 6 1009.5 1008.7 0.2
30/12:00am 11.8 9.0 5.2 64 3.1 WNW 9 13 5 7 1009.5 1008.7 0.2
 
Date/Time
EST
Temp
°C
App
Temp
°C
Dew
Point
°C
Rel
Hum
%
Delta-T
°C
Wind Press
QNH
hPa
Press
MSL
hPa
Rain since
9am
mm
Dir  Spd
km/h
Gust
km/h
Spd
kts
Gust
kts
29/11:30pm 13.3 9.8 7.1 66 3.1 WNW 15 20 8 11 1009.4 1008.6 0.2
29/11:00pm 14.2 10.7 8.8 70 2.8 WNW 17 20 9 11 1009.3 1008.5 0.2
29/10:30pm 15.3 11.9 10.7 74 2.5 WNW 19 22 10 12 1009.1 1008.3 0.2
29/10:00pm 14.5 12.3 10.9 79 1.9 NW 13 17 7 9 1008.8 1008.0 0.2
29/09:30pm 15.3 13.0 11.7 79 2.0 NW 15 17 8 9 1008.4 1007.6 0.2
29/09:00pm 15.3 13.0 11.9 80 1.9 NW 15 19 8 10 1008.2 1007.4 0.2
29/08:30pm 15.7 13.2 12.3 80 1.9 NW 17 20 9 11 1007.9 1007.1 0.2
29/08:00pm 16.8 14.7 12.5 76 2.4 WNW 15 20 8 11 1007.5 1006.6 0.2
29/07:30pm 17.4 15.2 13.3 77 2.3 WNW 17 22 9 12 1006.9 1006.0 0.2
29/07:00pm 17.1 15.6 13.0 77 2.3 W 13 15 7 8 1006.3 1005.5 0.2
29/06:30pm 18.6 16.4 13.2 71 3.1 W 17 20 9 11 1005.8 1005.0 0.2
29/06:00pm 19.9 16.5 13.6 67 3.7 W 24 30 13 16 1005.4 1004.6 0.2
29/05:30pm 21.2 19.9 14.8 67 3.8 W 15 20 8 11 1005.1 1004.3 0.2
29/05:00pm 21.2 19.5 14.6 66 3.9 WNW 17 22 9 12 1004.8 1003.9 0.2
29/04:30pm 22.5 20.2 14.6 61 4.7 WNW 20 30 11 16 1004.7 1003.8 0.2
29/04:00pm 22.4 19.0 14.8 62 4.6 W 26 33 14 18 1004.5 1003.6 0.2
29/03:30pm 23.9 20.1 15.7 60 5.0 WNW 30 43 16 23 1004.1 1003.2 0.2
29/03:00pm 23.6 19.0 14.6 57 5.4 NW 32 43 17 23 1004.2 1003.3 0.2
29/02:30pm 22.6 17.9 14.4 60 4.9 NW 32 41 17 22 1004.4 1003.5 0.2
29/02:00pm 22.8 17.6 14.4 59 5.0 NW 35 50 19 27 1004.7 1003.8 0.2
29/01:34pm 24.0 19.7 14.4 55 5.8 NW 30 48 16 26 1004.8 1003.9 0.2
29/01:30pm 24.2 20.2 15.1 56 5.5 NNW 30 43 16 23 1004.9 1004.0 0.2
29/01:00pm 23.8 19.2 14.5 56 5.6 NW 32 43 17 23 1005.3 1004.5 0.2
29/12:38pm 22.6 16.8 13.9 58 5.1 NW 37 57 20 31 1005.6 1004.8 0.2
29/12:30pm 22.8 16.5 13.6 56 5.4 NNW 39 52 21 28 1005.6 1004.8 0.2
29/12:00pm 22.9 17.8 13.1 54 5.7 NNW 32 43 17 23 1005.9 1005.1 0.2
29/11:30am 24.0 17.6 13.2 50 6.3 N 39 52 21 28 1006.3 1005.5 0.2
29/11:19am 24.5 19.9 14.6 54 6.0 N 32 50 17 27 1006.6 1005.8 0.0
29/11:00am 21.4 15.0 12.0 55 5.4 N 37 50 20 27 1007.0 1006.1 0.0
29/10:30am 20.7 14.6 11.6 56 5.1 N 35 46 19 25 1007.3 1006.4 0.0
29/10:00am 19.7 14.2 10.4 55 5.1 N 30 44 16 24 1007.7 1006.8 0.0
29/09:34am 19.0 13.7 11.3 61 4.3 N 30 48 16 26 1008.1 1007.3 0.0
29/09:30am 18.9 13.3 11.5 62 4.1 N 32 48 17 26 1008.3 1007.5 0.0
29/09:00am 17.8 13.6 12.3 70 3.1 N 26 35 14 19 1008.2 1007.4 0.0
29/08:30am 17.7 13.6 12.6 72 2.9 N 26 33 14 18 1008.1 1007.3 0.0
29/08:00am 17.6 12.7 12.7 73 2.8 N 30 39 16 21 1008.0 1007.2 0.0
29/07:30am 17.0 12.9 11.5 70 3.0 N 24 32 13 17 1007.8 1007.0 0.0
29/07:00am 18.9 13.9 9.7 55 5.0 N 26 35 14 19 1007.3 1006.4 0.0
29/06:30am 18.2 14.5 9.3 56 4.7 N 19 24 10 13 1006.5 1005.7 0.0
29/06:00am 18.1 14.3 9.2 56 4.7 N 19 22 10 12 1006.4 1005.6 0.0
29/05:30am 18.0 14.1 8.8 55 4.8 N 19 26 10 14 1006.4 1005.6 0.0
29/05:00am 18.0 14.2 9.1 56 4.7 N 19 22 10 12 1006.3 1005.5 0.0
29/04:30am 18.4 14.4 9.2 55 4.9 N 20 24 11 13 1006.6 1005.8 0.0
29/04:00am 18.8 14.1 9.3 54 5.1 N 24 30 13 16 1006.3 1005.5 0.0
29/03:30am 18.2 14.9 9.5 57 4.6 N 17 20 9 11 1005.9 1005.1 0.0
29/03:00am 18.2 14.0 9.8 58 4.5 N 22 28 12 15 1006.2 1005.4 0.0
29/02:30am 19.0 15.4 8.4 50 5.6 N 17 22 9 12 1007.5 1006.6 0.0
29/02:00am 20.0 15.7 7.1 43 6.7 N 19 26 10 14 1007.6 1006.7 0.0
29/01:30am 20.8 16.1 6.0 38 7.5 NNW 20 32 11 17 1008.4 1007.6 0.0
29/01:00am 21.5 14.5 5.8 36 8.0 NNW 32 46 17 25 1008.2 1007.4 0.0
29/12:39am 21.0 14.8 6.2 38 7.6 NNW 28 46 15 25 1008.5 1007.7 0.0
29/12:30am 21.1 16.2 7.0 40 7.3 NNW 22 30 12 16 1008.9 1008.1 0.0
29/12:00am 19.2 15.8 7.6 47 6.0 NNW 15 20 8 11 1009.2 1008.4 0.0
 
Date/Time
EST
Temp
°C
App
Temp
°C
Dew
Point
°C
Rel
Hum
%
Delta-T
°C
Wind Press
QNH
hPa
Press
MSL
hPa
Rain since
9am
mm
Dir  Spd
km/h
Gust
km/h
Spd
kts
Gust
kts
28/11:30pm 18.9 14.8 8.0 49 5.7 N 19 24 10 13 1009.3 1008.5 0.0
28/11:00pm 18.5 15.2 8.2 51 5.4 N 15 17 8 9 1010.3 1009.4 0.0
28/10:30pm 18.8 15.5 8.2 50 5.5 N 15 17 8 9 1010.7 1009.9 0.0
28/10:00pm 18.2 15.4 8.5 53 5.1 N 13 17 7 9 1011.2 1010.4 0.0
28/09:30pm 17.5 14.7 8.6 56 4.7 N 13 15 7 8 1011.7 1010.9 0.0
28/09:00pm 17.8 15.0 8.4 54 4.9 N 13 15 7 8 1011.5 1010.7 0.0
28/08:30pm 18.8 15.9 8.2 50 5.5 NNE 13 17 7 9 1011.1 1010.3 0.0
28/08:00pm 19.5 16.5 7.9 47 6.1 NNE 13 17 7 9 1011.0 1010.2 0.0
28/07:30pm 19.5 17.8 10.0 54 5.2 NNE 9 11 5 6 1010.5 1009.6 0.0
28/07:00pm 19.0 17.7 9.8 55 5.0 NNE 7 11 4 6 1010.4 1009.5 0.0
28/06:30pm 19.6 17.4 7.7 46 6.2 ENE 9 11 5 6 1010.0 1009.2 0.0
28/06:00pm 21.2 18.3 8.1 43 6.9 E 13 13 7 7 1009.6 1008.8 0.0
28/05:30pm 22.6 20.1 8.3 40 7.7 E 11 13 6 7 1009.7 1008.9 0.0
28/05:00pm 24.5 21.3 6.7 32 9.4 E 13 19 7 10 1009.9 1009.1 0.0
28/04:30pm 24.7 22.2 4.5 27 10.2 ENE 7 11 4 6 1010.0 1009.2 0.0
28/04:00pm 25.2 21.8 3.8 25 10.8 NE 11 22 6 12 1010.5 1009.6 0.0
28/03:30pm 26.1 21.7 2.7 22 11.6 ENE 15 19 8 10 1010.8 1010.0 0.0
28/03:00pm 25.7 23.2 3.6 24 11.1 NE 6 11 3 6 1010.9 1010.1 0.0
28/02:30pm 26.0 23.0 3.9 24 11.2 SSW 9 17 5 9 1011.2 1010.4 0.0
28/02:00pm 25.7 22.7 4.2 25 10.9 SE 9 17 5 9 1011.6 1010.8 0.0
28/01:30pm 25.4 21.3 2.2 22 11.3 SE 13 20 7 11 1012.1 1011.3 0.0
28/01:00pm 25.7 22.6 3.6 24 11.1 NW 9 17 5 9 1013.0 1012.2 0.0
28/12:30pm 25.2 21.9 4.3 26 10.6 WNW 11 22 6 12 1013.9 1013.1 0.0
28/12:00pm 24.8 20.8 5.1 28 10.1 W 15 24 8 13 1014.4 1013.6 0.0
28/11:30am 24.6 21.4 4.9 28 10.0 SW 11 17 6 9 1014.8 1014.0 0.0
28/11:00am 23.8 20.7 5.7 31 9.3 W 11 17 6 9 1015.2 1014.4 0.0
28/10:30am 23.3 20.1 5.2 31 9.2 SW 11 17 6 9 1015.6 1014.8 0.0
28/10:00am 22.9 19.1 5.8 33 8.8 WSW 15 20 8 11 1015.7 1014.9 0.0
28/09:30am 21.1 18.6 8.0 43 6.9 WSW 11 17 6 9 1015.8 1015.0 0.0
28/09:00am 20.7 17.5 7.0 41 7.1 WSW 13 17 7 9 1016.1 1015.3 0.0
28/08:30am 19.9 17.7 7.9 46 6.3 W 9 15 5 8 1016.1 1015.3 0.0
28/08:00am 17.3 15.5 7.1 51 5.2 N 6 15 3 8 1016.0 1015.2 0.0
28/07:30am 14.8 13.0 8.1 64 3.4 NNE 7 7 4 4 1015.9 1015.1 0.0
28/07:00am 12.6 11.1 9.1 79 1.8 N 7 9 4 5 1015.6 1014.8 0.0
28/06:30am 9.2 7.3 7.5 89 0.8 N 7 9 4 5 1015.0 1014.2 0.0
28/06:00am 7.5 4.7 5.1 85 1.1 N 9 9 5 5 1014.4 1013.6 0.0
28/05:30am 7.1 4.7 5.1 87 0.9 N 7 9 4 5 1014.2 1013.4 0.0
28/05:00am 7.4 5.2 5.4 87 0.9 NNE 6 7 3 4 1014.2 1013.4 0.0
28/04:30am 7.5 5.2 5.0 84 1.1 NNE 6 7 3 4 1014.0 1013.2 0.0
28/04:00am 8.0 5.8 6.1 88 0.9 N 7 7 4 4 1013.7 1012.9 0.0
28/03:30am 8.8 8.0 6.3 84 1.2 CALM 0 0 0 0 1013.5 1012.8 0.0
28/03:00am 8.8 6.8 6.3 84 1.2 NE 6 7 3 4 1013.7 1012.9 0.0
28/02:30am 9.0 6.4 5.9 81 1.4 N 9 11 5 6 1013.8 1013.0 0.0
28/02:00am 9.1 6.9 6.0 81 1.4 N 7 9 4 5 1014.0 1013.2 0.0
28/01:30am 9.8 7.7 6.5 80 1.6 N 7 9 4 5 1014.3 1013.5 0.0
28/01:00am 10.3 8.2 6.5 77 1.8 N 7 9 4 5 1014.8 1014.0 0.0
28/12:30am 10.4 8.3 6.7 78 1.8 NNE 7 9 4 5 1015.0 1014.2 0.0
28/12:00am 10.5 8.1 6.8 78 1.8 N 9 11 5 6 1015.4 1014.6 0.0
 
Date/Time
EST
Temp
°C
App
Temp
°C
Dew
Point
°C
Rel
Hum
%
Delta-T
°C
Wind Press
QNH
hPa
Press
MSL
hPa
Rain since
9am
mm
Dir  Spd
km/h
Gust
km/h
Spd
kts
Gust
kts
27/11:30pm 10.4 8.0 7.1 80 1.6 N 9 11 5 6 1015.7 1014.9 0.0
27/11:00pm 10.7 8.6 6.8 77 1.9 N 7 9 4 5 1015.7 1014.9 0.0
27/10:30pm 10.9 9.0 7.6 80 1.6 NNE 7 9 4 5 1016.0 1015.2 0.0
27/10:00pm 11.5 9.3 7.8 78 1.8 N 9 11 5 6 1016.0 1015.2 0.0
27/09:30pm 11.4 9.1 7.5 77 1.9 N 9 9 5 5 1016.1 1015.3 0.0
27/09:00pm 12.7 10.9 8.0 73 2.3 NNE 7 7 4 4 1016.2 1015.4 0.0
27/08:30pm 13.7 11.9 7.9 68 2.9 N 7 7 4 4 1016.1 1015.3 0.0
27/08:00pm 14.1 12.4 8.5 69 2.9 N 7 9 4 5 1016.1 1015.3 0.0
27/07:30pm 13.3 11.2 8.4 72 2.5 N 9 9 5 5 1016.0 1015.2 0.0
27/07:00pm 15.1 13.2 7.6 61 3.8 NNW 7 9 4 5 1015.7 1014.9 0.0
27/06:30pm 15.4 13.3 8.2 62 3.7 NNW 9 11 5 6 1015.4 1014.6 0.0
27/06:00pm 17.2 14.7 8.4 56 4.6 NW 11 11 6 6 1015.2 1014.4 0.0
27/05:30pm 19.6 17.3 7.4 45 6.3 NW 9 9 5 5 1015.0 1014.2 0.0
27/05:00pm 21.1 18.4 5.5 36 7.9 WNW 9 11 5 6 1014.8 1014.0 0.0
27/04:30pm 21.7 19.1 4.3 32 8.6 WSW 7 15 4 8 1014.7 1013.9 0.0
27/04:00pm 22.2 19.0 3.3 29 9.2 WNW 9 15 5 8 1014.6 1013.8 0.0
27/03:30pm 22.5 19.6 2.6 27 9.6 NW 7 15 4 8 1014.6 1013.8 0.0
27/03:00pm 23.4 20.9 4.9 30 9.4 NW 7 15 4 8 1014.6 1013.8 0.0
27/02:30pm 22.8 20.2 4.3 30 9.2 WNW 7 11 4 6 1015.3 1014.5 0.0
27/02:00pm 22.2 19.5 2.8 28 9.4 NW 6 9 3 5 1015.4 1014.6 0.0
27/01:30pm 21.5 18.7 2.2 28 9.2 ESE 6 11 3 6 1015.7 1014.9 0.0
27/01:00pm 21.2 18.1 3.4 31 8.6 WSW 9 15 5 8 1016.5 1015.8 0.0
27/12:30pm 21.2 18.7 4.7 34 8.2 N 7 13 4 7 1016.4 1015.7 0.0
27/12:00pm 20.8 18.5 5.6 37 7.6 W 7 11 4 6 1017.2 1016.4 0.0
27/11:30am 19.7 16.6 5.4 39 7.1 W 11 17 6 9 1017.6 1016.8 0.0
27/11:00am 19.2 16.3 4.6 38 7.1 WSW 9 13 5 7 1018.3 1017.5 0.0
27/10:30am 19.3 16.4 6.4 43 6.5 SW 11 15 6 8 1018.3 1017.5 0.0
27/10:00am 18.8 16.5 5.6 42 6.5 S 7 13 4 7 1018.4 1017.6 0.0
27/09:30am 17.9 15.2 5.8 45 6.0 S 9 15 5 8 1018.6 1017.8 0.0
27/09:00am 17.6 15.2 6.8 49 5.4 S 9 13 5 7 1018.8 1018.0 0.0
27/08:30am 17.2 15.1 6.7 50 5.3 SSW 7 11 4 6 1018.6 1017.8 0.0
27/08:00am 17.0 15.6 7.4 53 4.9 WSW 4 7 2 4 1018.7 1017.9 0.0
27/07:30am 14.7 13.5 9.5 71 2.7 WSW 6 7 3 4 1018.1 1017.3 0.0
27/07:00am 13.4 12.0 9.5 77 2.0 SW 7 9 4 5 1017.9 1017.1 0.0
27/06:30am 12.7 10.6 9.9 83 1.5 WSW 11 13 6 7 1017.7 1016.9 0.0
27/06:00am 11.1 8.3 8.7 85 1.2 W 13 13 7 7 1017.2 1016.4 0.0
27/05:30am 10.6 8.1 8.0 84 1.3 W 11 13 6 7 1016.9 1016.2 0.0
27/05:00am 11.1 8.7 8.7 85 1.2 WSW 11 13 6 7 1016.4 1015.7 0.0

Other Formats:

Comma delimited format used in spreadsheet applications
http://www.bom.gov.au/fwo/IDQ60801/IDQ60801.94515.axf

JavaScript Object Notation format (JSON) in row-major order
http://www.bom.gov.au/fwo/IDQ60801/IDQ60801.94515.json